sensor_id;sensor_type;location;lat;lon;timestamp;P1;durP1;ratioP1;P2;durP2;ratioP2
7985;SDS011;4038;42.612;23.066;2022-08-03T00:02:01;23.13;;;21.52;;
7985;SDS011;4038;42.612;23.066;2022-08-03T00:04:28;23.10;;;21.50;;
7985;SDS011;4038;42.612;23.066;2022-08-03T00:06:53;23.00;;;21.40;;
7985;SDS011;4038;42.612;23.066;2022-08-03T00:09:18;23.90;;;22.17;;
7985;SDS011;4038;42.612;23.066;2022-08-03T00:11:44;23.33;;;21.63;;
7985;SDS011;4038;42.612;23.066;2022-08-03T00:14:09;22.73;;;21.23;;
7985;SDS011;4038;42.612;23.066;2022-08-03T00:16:35;23.45;;;21.85;;
7985;SDS011;4038;42.612;23.066;2022-08-03T00:19:00;23.00;;;21.50;;
7985;SDS011;4038;42.612;23.066;2022-08-03T00:21:26;23.65;;;22.10;;
7985;SDS011;4038;42.612;23.066;2022-08-03T00:23:52;23.23;;;21.45;;
7985;SDS011;4038;42.612;23.066;2022-08-03T00:26:18;23.15;;;21.55;;
7985;SDS011;4038;42.612;23.066;2022-08-03T00:28:44;23.83;;;22.25;;
7985;SDS011;4038;42.612;23.066;2022-08-03T00:31:09;23.27;;;21.70;;
7985;SDS011;4038;42.612;23.066;2022-08-03T00:33:35;23.50;;;21.73;;
7985;SDS011;4038;42.612;23.066;2022-08-03T00:36:00;22.08;;;20.67;;
7985;SDS011;4038;42.612;23.066;2022-08-03T00:38:26;22.85;;;21.42;;
7985;SDS011;4038;42.612;23.066;2022-08-03T00:40:51;24.30;;;22.05;;
7985;SDS011;4038;42.612;23.066;2022-08-03T00:43:18;24.10;;;22.30;;
7985;SDS011;4038;42.612;23.066;2022-08-03T00:45:43;23.92;;;22.23;;
7985;SDS011;4038;42.612;23.066;2022-08-03T00:48:10;23.75;;;22.25;;
7985;SDS011;4038;42.612;23.066;2022-08-03T00:50:39;23.50;;;21.92;;
7985;SDS011;4038;42.612;23.066;2022-08-03T00:53:08;23.30;;;21.80;;
7985;SDS011;4038;42.612;23.066;2022-08-03T00:55:36;23.83;;;22.23;;
7985;SDS011;4038;42.612;23.066;2022-08-03T00:58:02;23.10;;;21.60;;
7985;SDS011;4038;42.612;23.066;2022-08-03T01:00:32;22.73;;;21.33;;
7985;SDS011;4038;42.612;23.066;2022-08-03T01:03:00;22.92;;;21.42;;
7985;SDS011;4038;42.612;23.066;2022-08-03T01:05:26;22.85;;;21.35;;
7985;SDS011;4038;42.612;23.066;2022-08-03T01:07:56;23.15;;;21.67;;
7985;SDS011;4038;42.612;23.066;2022-08-03T01:16:02;23.67;;;22.10;;
7985;SDS011;4038;42.612;23.066;2022-08-03T01:18:35;23.48;;;21.98;;
7985;SDS011;4038;42.612;23.066;2022-08-03T01:21:09;23.88;;;22.08;;
7985;SDS011;4038;42.612;23.066;2022-08-03T01:23:44;23.25;;;21.75;;
7985;SDS011;4038;42.612;23.066;2022-08-03T01:26:34;23.42;;;21.73;;
7985;SDS011;4038;42.612;23.066;2022-08-03T01:32:02;23.20;;;21.48;;
7985;SDS011;4038;42.612;23.066;2022-08-03T01:34:34;22.73;;;21.20;;
7985;SDS011;4038;42.612;23.066;2022-08-03T01:37:04;22.27;;;20.88;;
7985;SDS011;4038;42.612;23.066;2022-08-03T01:39:32;23.63;;;22.13;;
7985;SDS011;4038;42.612;23.066;2022-08-03T01:42:02;22.65;;;21.17;;
7985;SDS011;4038;42.612;23.066;2022-08-03T01:44:31;23.08;;;21.58;;
7985;SDS011;4038;42.612;23.066;2022-08-03T01:47:00;22.30;;;20.90;;
7985;SDS011;4038;42.612;23.066;2022-08-03T01:49:27;23.67;;;22.02;;
7985;SDS011;4038;42.612;23.066;2022-08-03T01:51:56;23.27;;;21.77;;
7985;SDS011;4038;42.612;23.066;2022-08-03T01:54:23;22.90;;;21.40;;
7985;SDS011;4038;42.612;23.066;2022-08-03T01:56:50;23.02;;;21.52;;
7985;SDS011;4038;42.612;23.066;2022-08-03T01:59:18;23.00;;;21.50;;
7985;SDS011;4038;42.612;23.066;2022-08-03T02:01:46;23.02;;;21.52;;
7985;SDS011;4038;42.612;23.066;2022-08-03T02:04:13;22.65;;;21.17;;
7985;SDS011;4038;42.612;23.066;2022-08-03T02:06:42;22.65;;;21.00;;
7985;SDS011;4038;42.612;23.066;2022-08-03T02:09:10;22.42;;;20.83;;
7985;SDS011;4038;42.612;23.066;2022-08-03T02:11:37;22.60;;;21.20;;
7985;SDS011;4038;42.612;23.066;2022-08-03T02:14:03;22.90;;;21.25;;
7985;SDS011;4038;42.612;23.066;2022-08-03T02:16:30;22.42;;;20.95;;
7985;SDS011;4038;42.612;23.066;2022-08-03T02:18:58;22.63;;;21.15;;
7985;SDS011;4038;42.612;23.066;2022-08-03T02:21:27;22.50;;;21.00;;
7985;SDS011;4038;42.612;23.066;2022-08-03T02:23:53;22.73;;;21.23;;
7985;SDS011;4038;42.612;23.066;2022-08-03T02:26:19;22.50;;;20.90;;
7985;SDS011;4038;42.612;23.066;2022-08-03T02:28:48;22.60;;;21.10;;
7985;SDS011;4038;42.612;23.066;2022-08-03T02:31:19;22.27;;;20.77;;
7985;SDS011;4038;42.612;23.066;2022-08-03T02:33:49;22.58;;;20.88;;
7985;SDS011;4038;42.612;23.066;2022-08-03T02:36:21;22.25;;;20.75;;
7985;SDS011;4038;42.612;23.066;2022-08-03T02:38:51;22.27;;;20.77;;
7985;SDS011;4038;42.612;23.066;2022-08-03T02:41:20;22.67;;;21.15;;
7985;SDS011;4038;42.612;23.066;2022-08-03T02:43:52;22.10;;;20.60;;
7985;SDS011;4038;42.612;23.066;2022-08-03T02:46:21;23.45;;;21.58;;
7985;SDS011;4038;42.612;23.066;2022-08-03T02:48:49;24.00;;;22.13;;
7985;SDS011;4038;42.612;23.066;2022-08-03T02:51:18;23.13;;;21.33;;
7985;SDS011;4038;42.612;23.066;2022-08-03T02:53:45;22.77;;;21.13;;
7985;SDS011;4038;42.612;23.066;2022-08-03T02:56:12;23.00;;;21.30;;
7985;SDS011;4038;42.612;23.066;2022-08-03T02:58:41;22.33;;;20.92;;
7985;SDS011;4038;42.612;23.066;2022-08-03T03:01:09;22.55;;;20.85;;
7985;SDS011;4038;42.612;23.066;2022-08-03T03:03:35;22.95;;;21.35;;
7985;SDS011;4038;42.612;23.066;2022-08-03T03:06:02;22.95;;;21.02;;
7985;SDS011;4038;42.612;23.066;2022-08-03T03:08:28;22.98;;;21.38;;
7985;SDS011;4038;42.612;23.066;2022-08-03T03:10:54;23.10;;;21.27;;
7985;SDS011;4038;42.612;23.066;2022-08-03T03:13:23;21.85;;;20.35;;
7985;SDS011;4038;42.612;23.066;2022-08-03T03:15:51;21.92;;;20.42;;
7985;SDS011;4038;42.612;23.066;2022-08-03T03:18:18;22.15;;;20.73;;
7985;SDS011;4038;42.612;23.066;2022-08-03T03:20:45;21.85;;;20.45;;
7985;SDS011;4038;42.612;23.066;2022-08-03T03:23:11;22.35;;;20.83;;
7985;SDS011;4038;42.612;23.066;2022-08-03T03:25:38;22.35;;;20.85;;
7985;SDS011;4038;42.612;23.066;2022-08-03T03:28:04;22.10;;;20.70;;
7985;SDS011;4038;42.612;23.066;2022-08-03T03:30:30;22.75;;;21.25;;
7985;SDS011;4038;42.612;23.066;2022-08-03T03:32:56;22.77;;;21.17;;
7985;SDS011;4038;42.612;23.066;2022-08-03T03:35:22;23.00;;;21.30;;
7985;SDS011;4038;42.612;23.066;2022-08-03T03:37:48;23.58;;;21.88;;
7985;SDS011;4038;42.612;23.066;2022-08-03T03:40:13;22.98;;;21.38;;
7985;SDS011;4038;42.612;23.066;2022-08-03T03:42:39;23.17;;;21.27;;
7985;SDS011;4038;42.612;23.066;2022-08-03T03:45:05;23.73;;;21.45;;
7985;SDS011;4038;42.612;23.066;2022-08-03T03:47:35;23.25;;;21.17;;
7985;SDS011;4038;42.612;23.066;2022-08-03T03:50:01;25.73;;;21.83;;
7985;SDS011;4038;42.612;23.066;2022-08-03T03:52:28;22.92;;;21.00;;
7985;SDS011;4038;42.612;23.066;2022-08-03T03:54:53;23.15;;;21.50;;
7985;SDS011;4038;42.612;23.066;2022-08-03T03:57:19;22.10;;;20.70;;
7985;SDS011;4038;42.612;23.066;2022-08-03T03:59:44;22.83;;;21.02;;
7985;SDS011;4038;42.612;23.066;2022-08-03T04:02:10;23.83;;;21.52;;
7985;SDS011;4038;42.612;23.066;2022-08-03T04:04:36;23.25;;;21.60;;
7985;SDS011;4038;42.612;23.066;2022-08-03T04:07:24;23.92;;;21.75;;
7985;SDS011;4038;42.612;23.066;2022-08-03T04:10:12;23.02;;;21.42;;
7985;SDS011;4038;42.612;23.066;2022-08-03T04:12:59;22.75;;;21.15;;
7985;SDS011;4038;42.612;23.066;2022-08-03T04:15:26;23.13;;;21.23;;
7985;SDS011;4038;42.612;23.066;2022-08-03T04:17:54;23.58;;;21.45;;
7985;SDS011;4038;42.612;23.066;2022-08-03T04:20:23;24.00;;;21.30;;
7985;SDS011;4038;42.612;23.066;2022-08-03T04:22:52;22.90;;;21.30;;
7985;SDS011;4038;42.612;23.066;2022-08-03T04:25:19;23.60;;;21.80;;
7985;SDS011;4038;42.612;23.066;2022-08-03T04:27:48;25.10;;;21.85;;
7985;SDS011;4038;42.612;23.066;2022-08-03T04:30:16;25.15;;;22.15;;
7985;SDS011;4038;42.612;23.066;2022-08-03T04:32:43;26.10;;;22.38;;
7985;SDS011;4038;42.612;23.066;2022-08-03T04:35:14;25.90;;;22.92;;
7985;SDS011;4038;42.612;23.066;2022-08-03T04:37:40;26.48;;;23.70;;
7985;SDS011;4038;42.612;23.066;2022-08-03T04:40:12;42.00;;;24.00;;
7985;SDS011;4038;42.612;23.066;2022-08-03T04:42:38;31.08;;;23.65;;
7985;SDS011;4038;42.612;23.066;2022-08-03T04:45:06;26.40;;;21.85;;
7985;SDS011;4038;42.612;23.066;2022-08-03T04:47:35;23.75;;;21.75;;
7985;SDS011;4038;42.612;23.066;2022-08-03T04:50:03;22.90;;;20.98;;
7985;SDS011;4038;42.612;23.066;2022-08-03T04:52:30;24.58;;;22.10;;
7985;SDS011;4038;42.612;23.066;2022-08-03T04:54:56;24.45;;;22.33;;
7985;SDS011;4038;42.612;23.066;2022-08-03T04:57:21;24.55;;;22.52;;
7985;SDS011;4038;42.612;23.066;2022-08-03T04:59:47;30.08;;;22.83;;
7985;SDS011;4038;42.612;23.066;2022-08-03T05:02:16;39.42;;;25.20;;
7985;SDS011;4038;42.612;23.066;2022-08-03T05:04:42;26.27;;;23.13;;
7985;SDS011;4038;42.612;23.066;2022-08-03T05:07:10;25.23;;;22.73;;
7985;SDS011;4038;42.612;23.066;2022-08-03T05:09:39;29.42;;;23.27;;
7985;SDS011;4038;42.612;23.066;2022-08-03T05:12:05;28.80;;;23.60;;
7985;SDS011;4038;42.612;23.066;2022-08-03T05:14:34;25.90;;;23.42;;
7985;SDS011;4038;42.612;23.066;2022-08-03T05:17:03;25.73;;;23.25;;
7985;SDS011;4038;42.612;23.066;2022-08-03T05:19:29;27.15;;;23.67;;
7985;SDS011;4038;42.612;23.066;2022-08-03T05:21:55;27.35;;;24.60;;
7985;SDS011;4038;42.612;23.066;2022-08-03T05:24:20;26.17;;;23.65;;
7985;SDS011;4038;42.612;23.066;2022-08-03T05:26:46;26.83;;;24.08;;
7985;SDS011;4038;42.612;23.066;2022-08-03T05:29:11;26.55;;;24.02;;
7985;SDS011;4038;42.612;23.066;2022-08-03T05:31:37;33.58;;;24.83;;
7985;SDS011;4038;42.612;23.066;2022-08-03T05:34:02;29.70;;;24.75;;
7985;SDS011;4038;42.612;23.066;2022-08-03T05:36:27;26.10;;;23.50;;
7985;SDS011;4038;42.612;23.066;2022-08-03T05:38:53;26.20;;;23.70;;
7985;SDS011;4038;42.612;23.066;2022-08-03T05:41:18;26.38;;;24.23;;
7985;SDS011;4038;42.612;23.066;2022-08-03T05:43:43;27.88;;;25.23;;
7985;SDS011;4038;42.612;23.066;2022-08-03T05:46:09;27.85;;;25.15;;
7985;SDS011;4038;42.612;23.066;2022-08-03T05:48:34;29.58;;;25.40;;
7985;SDS011;4038;42.612;23.066;2022-08-03T05:51:00;39.85;;;25.58;;
7985;SDS011;4038;42.612;23.066;2022-08-03T05:53:25;49.90;;;26.30;;
7985;SDS011;4038;42.612;23.066;2022-08-03T05:55:51;42.88;;;25.75;;
7985;SDS011;4038;42.612;23.066;2022-08-03T05:58:16;48.80;;;25.75;;
7985;SDS011;4038;42.612;23.066;2022-08-03T06:00:41;65.57;;;28.52;;
7985;SDS011;4038;42.612;23.066;2022-08-03T06:03:07;55.50;;;27.10;;
7985;SDS011;4038;42.612;23.066;2022-08-03T06:05:32;50.78;;;25.40;;
7985;SDS011;4038;42.612;23.066;2022-08-03T06:08:00;41.70;;;24.77;;
7985;SDS011;4038;42.612;23.066;2022-08-03T06:10:26;50.03;;;31.40;;
7985;SDS011;4038;42.612;23.066;2022-08-03T06:12:52;40.55;;;27.77;;
7985;SDS011;4038;42.612;23.066;2022-08-03T06:15:17;47.20;;;26.27;;
7985;SDS011;4038;42.612;23.066;2022-08-03T06:17:46;41.28;;;36.45;;
7985;SDS011;4038;42.612;23.066;2022-08-03T06:20:14;30.45;;;24.23;;
7985;SDS011;4038;42.612;23.066;2022-08-03T06:22:41;43.72;;;24.83;;
7985;SDS011;4038;42.612;23.066;2022-08-03T06:25:06;29.60;;;24.17;;
7985;SDS011;4038;42.612;23.066;2022-08-03T06:27:32;27.05;;;24.17;;
7985;SDS011;4038;42.612;23.066;2022-08-03T06:29:58;25.45;;;22.90;;
7985;SDS011;4038;42.612;23.066;2022-08-03T06:32:23;28.95;;;23.70;;
7985;SDS011;4038;42.612;23.066;2022-08-03T06:34:49;26.73;;;23.58;;
7985;SDS011;4038;42.612;23.066;2022-08-03T06:37:15;32.58;;;23.55;;
7985;SDS011;4038;42.612;23.066;2022-08-03T06:39:40;30.20;;;25.25;;
7985;SDS011;4038;42.612;23.066;2022-08-03T06:42:06;36.92;;;33.22;;
7985;SDS011;4038;42.612;23.066;2022-08-03T06:44:31;28.10;;;24.20;;
7985;SDS011;4038;42.612;23.066;2022-08-03T06:46:57;27.65;;;23.25;;
7985;SDS011;4038;42.612;23.066;2022-08-03T06:49:22;26.40;;;23.70;;
7985;SDS011;4038;42.612;23.066;2022-08-03T06:51:48;28.08;;;24.83;;
7985;SDS011;4038;42.612;23.066;2022-08-03T06:54:15;27.92;;;25.10;;
7985;SDS011;4038;42.612;23.066;2022-08-03T06:56:41;26.10;;;24.00;;
7985;SDS011;4038;42.612;23.066;2022-08-03T06:59:07;26.15;;;23.70;;
7985;SDS011;4038;42.612;23.066;2022-08-03T07:01:32;28.25;;;24.48;;
7985;SDS011;4038;42.612;23.066;2022-08-03T07:03:58;26.30;;;23.80;;
7985;SDS011;4038;42.612;23.066;2022-08-03T07:06:24;26.02;;;23.60;;
7985;SDS011;4038;42.612;23.066;2022-08-03T07:08:50;25.75;;;23.20;;
7985;SDS011;4038;42.612;23.066;2022-08-03T07:11:15;25.67;;;23.60;;
7985;SDS011;4038;42.612;23.066;2022-08-03T07:13:41;26.20;;;23.65;;
7985;SDS011;4038;42.612;23.066;2022-08-03T07:16:07;27.15;;;24.42;;
7985;SDS011;4038;42.612;23.066;2022-08-03T07:18:33;27.73;;;24.98;;
7985;SDS011;4038;42.612;23.066;2022-08-03T07:21:01;26.83;;;24.17;;
7985;SDS011;4038;42.612;23.066;2022-08-03T07:23:27;26.27;;;24.05;;
7985;SDS011;4038;42.612;23.066;2022-08-03T07:25:53;26.90;;;24.17;;
7985;SDS011;4038;42.612;23.066;2022-08-03T07:28:18;25.73;;;23.60;;
7985;SDS011;4038;42.612;23.066;2022-08-03T07:30:44;26.38;;;24.17;;
7985;SDS011;4038;42.612;23.066;2022-08-03T07:33:10;25.13;;;23.23;;
7985;SDS011;4038;42.612;23.066;2022-08-03T07:35:35;24.52;;;22.63;;
7985;SDS011;4038;42.612;23.066;2022-08-03T07:38:00;24.08;;;22.23;;
7985;SDS011;4038;42.612;23.066;2022-08-03T07:40:26;24.50;;;22.50;;
7985;SDS011;4038;42.612;23.066;2022-08-03T07:42:51;25.30;;;23.33;;
7985;SDS011;4038;42.612;23.066;2022-08-03T07:45:17;24.77;;;22.88;;
7985;SDS011;4038;42.612;23.066;2022-08-03T07:47:42;24.02;;;22.00;;
7985;SDS011;4038;42.612;23.066;2022-08-03T07:50:08;24.35;;;22.55;;
7985;SDS011;4038;42.612;23.066;2022-08-03T07:52:33;23.58;;;21.98;;
7985;SDS011;4038;42.612;23.066;2022-08-03T07:55:19;24.52;;;22.92;;
7985;SDS011;4038;42.612;23.066;2022-08-03T08:00:26;26.67;;;24.88;;
7985;SDS011;4038;42.612;23.066;2022-08-03T08:02:52;23.60;;;21.95;;
7985;SDS011;4038;42.612;23.066;2022-08-03T08:05:18;24.63;;;22.80;;
7985;SDS011;4038;42.612;23.066;2022-08-03T08:07:43;24.77;;;22.98;;
7985;SDS011;4038;42.612;23.066;2022-08-03T08:10:09;24.67;;;22.98;;
7985;SDS011;4038;42.612;23.066;2022-08-03T08:12:35;24.95;;;23.15;;
7985;SDS011;4038;42.612;23.066;2022-08-03T08:15:01;24.55;;;22.85;;
7985;SDS011;4038;42.612;23.066;2022-08-03T08:17:26;25.20;;;23.40;;
7985;SDS011;4038;42.612;23.066;2022-08-03T08:19:52;24.15;;;22.45;;
7985;SDS011;4038;42.612;23.066;2022-08-03T08:22:18;25.52;;;23.83;;
7985;SDS011;4038;42.612;23.066;2022-08-03T08:24:43;31.73;;;29.45;;
7985;SDS011;4038;42.612;23.066;2022-08-03T08:27:09;26.50;;;24.75;;
7985;SDS011;4038;42.612;23.066;2022-08-03T08:29:36;25.67;;;23.98;;
7985;SDS011;4038;42.612;23.066;2022-08-03T08:32:02;25.92;;;23.70;;
7985;SDS011;4038;42.612;23.066;2022-08-03T08:34:27;25.33;;;23.30;;
7985;SDS011;4038;42.612;23.066;2022-08-03T08:36:53;25.70;;;23.90;;
7985;SDS011;4038;42.612;23.066;2022-08-03T08:39:18;25.80;;;24.10;;
7985;SDS011;4038;42.612;23.066;2022-08-03T08:41:44;25.50;;;23.70;;
7985;SDS011;4038;42.612;23.066;2022-08-03T08:44:09;25.48;;;23.67;;
7985;SDS011;4038;42.612;23.066;2022-08-03T08:46:34;24.77;;;23.05;;
7985;SDS011;4038;42.612;23.066;2022-08-03T08:49:02;25.90;;;24.10;;
7985;SDS011;4038;42.612;23.066;2022-08-03T08:51:33;25.65;;;23.95;;
7985;SDS011;4038;42.612;23.066;2022-08-03T08:54:01;24.77;;;23.15;;
7985;SDS011;4038;42.612;23.066;2022-08-03T08:56:28;25.15;;;23.45;;
7985;SDS011;4038;42.612;23.066;2022-08-03T08:58:57;24.90;;;23.10;;
7985;SDS011;4038;42.612;23.066;2022-08-03T09:01:24;24.15;;;22.27;;
7985;SDS011;4038;42.612;23.066;2022-08-03T09:03:50;25.65;;;23.95;;
7985;SDS011;4038;42.612;23.066;2022-08-03T09:06:17;25.73;;;24.00;;
7985;SDS011;4038;42.612;23.066;2022-08-03T09:08:42;24.70;;;22.90;;
7985;SDS011;4038;42.612;23.066;2022-08-03T09:11:08;24.27;;;22.70;;
7985;SDS011;4038;42.612;23.066;2022-08-03T09:13:33;25.15;;;23.38;;
7985;SDS011;4038;42.612;23.066;2022-08-03T09:18:42;25.23;;;23.63;;
7985;SDS011;4038;42.612;23.066;2022-08-03T09:23:54;25.00;;;23.25;;
7985;SDS011;4038;42.612;23.066;2022-08-03T09:26:25;24.42;;;22.83;;
7985;SDS011;4038;42.612;23.066;2022-08-03T09:28:56;25.40;;;23.70;;
7985;SDS011;4038;42.612;23.066;2022-08-03T09:31:33;25.27;;;23.58;;
7985;SDS011;4038;42.612;23.066;2022-08-03T09:34:00;25.30;;;23.70;;
7985;SDS011;4038;42.612;23.066;2022-08-03T09:36:32;26.23;;;24.35;;
7985;SDS011;4038;42.612;23.066;2022-08-03T09:39:03;24.90;;;23.10;;
7985;SDS011;4038;42.612;23.066;2022-08-03T09:41:31;24.65;;;23.05;;
7985;SDS011;4038;42.612;23.066;2022-08-03T09:43:57;24.00;;;22.40;;
7985;SDS011;4038;42.612;23.066;2022-08-03T09:46:23;24.20;;;22.60;;
7985;SDS011;4038;42.612;23.066;2022-08-03T09:48:49;26.15;;;24.23;;
7985;SDS011;4038;42.612;23.066;2022-08-03T09:51:14;26.30;;;24.60;;
7985;SDS011;4038;42.612;23.066;2022-08-03T09:53:45;25.55;;;23.45;;
7985;SDS011;4038;42.612;23.066;2022-08-03T09:56:11;25.40;;;23.60;;
7985;SDS011;4038;42.612;23.066;2022-08-03T09:58:44;26.00;;;24.10;;
7985;SDS011;4038;42.612;23.066;2022-08-03T10:01:11;26.30;;;24.30;;
7985;SDS011;4038;42.612;23.066;2022-08-03T10:03:37;27.38;;;25.08;;
7985;SDS011;4038;42.612;23.066;2022-08-03T10:06:14;24.38;;;22.67;;
7985;SDS011;4038;42.612;23.066;2022-08-03T10:08:40;24.40;;;22.67;;
7985;SDS011;4038;42.612;23.066;2022-08-03T10:11:06;24.58;;;22.98;;
7985;SDS011;4038;42.612;23.066;2022-08-03T10:13:31;25.25;;;23.48;;
7985;SDS011;4038;42.612;23.066;2022-08-03T10:15:57;26.63;;;24.83;;
7985;SDS011;4038;42.612;23.066;2022-08-03T10:18:22;26.05;;;24.25;;
7985;SDS011;4038;42.612;23.066;2022-08-03T10:20:49;25.92;;;24.10;;
7985;SDS011;4038;42.612;23.066;2022-08-03T10:23:17;26.45;;;24.75;;
7985;SDS011;4038;42.612;23.066;2022-08-03T10:25:45;27.52;;;25.40;;
7985;SDS011;4038;42.612;23.066;2022-08-03T10:28:14;27.20;;;25.40;;
7985;SDS011;4038;42.612;23.066;2022-08-03T10:30:43;27.23;;;25.52;;
7985;SDS011;4038;42.612;23.066;2022-08-03T10:33:19;26.02;;;24.13;;
7985;SDS011;4038;42.612;23.066;2022-08-03T10:35:49;28.20;;;25.58;;
7985;SDS011;4038;42.612;23.066;2022-08-03T10:38:18;26.27;;;24.58;;
7985;SDS011;4038;42.612;23.066;2022-08-03T10:40:45;25.42;;;23.52;;
7985;SDS011;4038;42.612;23.066;2022-08-03T10:43:19;26.30;;;24.50;;
7985;SDS011;4038;42.612;23.066;2022-08-03T10:46:06;27.20;;;25.40;;
7985;SDS011;4038;42.612;23.066;2022-08-03T10:48:32;27.25;;;25.45;;
7985;SDS011;4038;42.612;23.066;2022-08-03T10:50:59;26.85;;;25.13;;
7985;SDS011;4038;42.612;23.066;2022-08-03T10:53:35;27.42;;;25.55;;
7985;SDS011;4038;42.612;23.066;2022-08-03T10:56:02;26.65;;;24.92;;
7985;SDS011;4038;42.612;23.066;2022-08-03T10:58:51;27.08;;;25.27;;
7985;SDS011;4038;42.612;23.066;2022-08-03T11:01:18;26.38;;;24.67;;
7985;SDS011;4038;42.612;23.066;2022-08-03T11:06:29;26.80;;;25.10;;
7985;SDS011;4038;42.612;23.066;2022-08-03T11:11:35;25.52;;;23.73;;
7985;SDS011;4038;42.612;23.066;2022-08-03T11:16:46;25.75;;;23.95;;
7985;SDS011;4038;42.612;23.066;2022-08-03T11:19:18;26.40;;;24.70;;
7985;SDS011;4038;42.612;23.066;2022-08-03T11:27:19;26.23;;;24.52;;
7985;SDS011;4038;42.612;23.066;2022-08-03T11:43:42;37.08;;;25.10;;
7985;SDS011;4038;42.612;23.066;2022-08-03T11:46:08;25.77;;;23.98;;
7985;SDS011;4038;42.612;23.066;2022-08-03T11:48:49;25.05;;;23.15;;
7985;SDS011;4038;42.612;23.066;2022-08-03T11:51:28;25.50;;;23.73;;
7985;SDS011;4038;42.612;23.066;2022-08-03T11:53:57;26.45;;;24.75;;
7985;SDS011;4038;42.612;23.066;2022-08-03T11:56:24;26.20;;;24.40;;
7985;SDS011;4038;42.612;23.066;2022-08-03T11:58:54;25.42;;;23.40;;
7985;SDS011;4038;42.612;23.066;2022-08-03T12:01:21;25.42;;;23.73;;
7985;SDS011;4038;42.612;23.066;2022-08-03T12:03:48;26.42;;;24.50;;
7985;SDS011;4038;42.612;23.066;2022-08-03T12:06:15;26.30;;;24.60;;
7985;SDS011;4038;42.612;23.066;2022-08-03T12:08:42;27.58;;;24.80;;
7985;SDS011;4038;42.612;23.066;2022-08-03T12:11:09;25.58;;;23.77;;
7985;SDS011;4038;42.612;23.066;2022-08-03T12:13:48;26.02;;;23.98;;
7985;SDS011;4038;42.612;23.066;2022-08-03T12:16:21;26.25;;;24.48;;
7985;SDS011;4038;42.612;23.066;2022-08-03T12:18:57;26.35;;;24.65;;
7985;SDS011;4038;42.612;23.066;2022-08-03T12:21:24;27.05;;;24.75;;
7985;SDS011;4038;42.612;23.066;2022-08-03T12:23:50;24.58;;;22.83;;
7985;SDS011;4038;42.612;23.066;2022-08-03T12:26:20;23.77;;;22.17;;
7985;SDS011;4038;42.612;23.066;2022-08-03T12:28:48;23.50;;;21.90;;
7985;SDS011;4038;42.612;23.066;2022-08-03T12:31:14;25.02;;;23.42;;
7985;SDS011;4038;42.612;23.066;2022-08-03T12:33:57;26.05;;;24.15;;
7985;SDS011;4038;42.612;23.066;2022-08-03T12:36:22;24.90;;;23.20;;
7985;SDS011;4038;42.612;23.066;2022-08-03T12:38:59;23.70;;;21.98;;
7985;SDS011;4038;42.612;23.066;2022-08-03T12:43:59;24.70;;;23.00;;
7985;SDS011;4038;42.612;23.066;2022-08-03T12:46:29;24.13;;;22.63;;
7985;SDS011;4038;42.612;23.066;2022-08-03T12:48:59;25.40;;;23.70;;
7985;SDS011;4038;42.612;23.066;2022-08-03T12:51:25;24.83;;;23.23;;
7985;SDS011;4038;42.612;23.066;2022-08-03T12:53:53;23.85;;;22.25;;
7985;SDS011;4038;42.612;23.066;2022-08-03T12:56:19;24.17;;;22.58;;
7985;SDS011;4038;42.612;23.066;2022-08-03T12:58:45;24.30;;;22.60;;
7985;SDS011;4038;42.612;23.066;2022-08-03T13:01:12;26.08;;;23.98;;
7985;SDS011;4038;42.612;23.066;2022-08-03T13:03:41;25.88;;;24.23;;
7985;SDS011;4038;42.612;23.066;2022-08-03T13:06:14;25.15;;;23.38;;
7985;SDS011;4038;42.612;23.066;2022-08-03T13:08:41;24.88;;;23.17;;
7985;SDS011;4038;42.612;23.066;2022-08-03T13:13:42;25.48;;;23.73;;
7985;SDS011;4038;42.612;23.066;2022-08-03T13:16:08;26.13;;;24.40;;
7985;SDS011;4038;42.612;23.066;2022-08-03T13:18:33;27.17;;;25.27;;
7985;SDS011;4038;42.612;23.066;2022-08-03T13:20:58;24.98;;;23.38;;
7985;SDS011;4038;42.612;23.066;2022-08-03T13:23:24;25.65;;;23.95;;
7985;SDS011;4038;42.612;23.066;2022-08-03T13:25:49;25.00;;;23.30;;
7985;SDS011;4038;42.612;23.066;2022-08-03T13:28:15;35.35;;;32.45;;
7985;SDS011;4038;42.612;23.066;2022-08-03T13:30:40;26.63;;;24.83;;
7985;SDS011;4038;42.612;23.066;2022-08-03T13:33:07;25.55;;;23.95;;
7985;SDS011;4038;42.612;23.066;2022-08-03T13:35:33;25.27;;;23.50;;
7985;SDS011;4038;42.612;23.066;2022-08-03T13:37:58;25.10;;;23.40;;
7985;SDS011;4038;42.612;23.066;2022-08-03T13:40:23;25.20;;;23.50;;
7985;SDS011;4038;42.612;23.066;2022-08-03T13:42:49;26.70;;;24.88;;
7985;SDS011;4038;42.612;23.066;2022-08-03T13:45:14;26.00;;;24.20;;
7985;SDS011;4038;42.612;23.066;2022-08-03T13:47:39;24.90;;;23.23;;
7985;SDS011;4038;42.612;23.066;2022-08-03T13:50:05;24.88;;;23.17;;
7985;SDS011;4038;42.612;23.066;2022-08-03T13:52:31;25.58;;;23.67;;
7985;SDS011;4038;42.612;23.066;2022-08-03T13:54:58;26.17;;;24.38;;
7985;SDS011;4038;42.612;23.066;2022-08-03T13:57:24;27.60;;;25.60;;
7985;SDS011;4038;42.612;23.066;2022-08-03T13:59:49;26.17;;;24.48;;
7985;SDS011;4038;42.612;23.066;2022-08-03T14:02:14;25.38;;;23.67;;
7985;SDS011;4038;42.612;23.066;2022-08-03T14:04:40;26.35;;;24.55;;
7985;SDS011;4038;42.612;23.066;2022-08-03T14:07:05;27.45;;;25.42;;
7985;SDS011;4038;42.612;23.066;2022-08-03T14:09:31;27.80;;;25.58;;
7985;SDS011;4038;42.612;23.066;2022-08-03T14:11:56;26.23;;;24.33;;
7985;SDS011;4038;42.612;23.066;2022-08-03T14:14:21;26.30;;;24.50;;
7985;SDS011;4038;42.612;23.066;2022-08-03T14:16:47;25.50;;;23.77;;
7985;SDS011;4038;42.612;23.066;2022-08-03T14:19:12;25.10;;;23.40;;
7985;SDS011;4038;42.612;23.066;2022-08-03T14:21:39;25.92;;;24.13;;
7985;SDS011;4038;42.612;23.066;2022-08-03T14:24:05;24.60;;;22.88;;
7985;SDS011;4038;42.612;23.066;2022-08-03T14:26:30;25.05;;;23.33;;
7985;SDS011;4038;42.612;23.066;2022-08-03T14:28:56;25.15;;;23.35;;
7985;SDS011;4038;42.612;23.066;2022-08-03T14:31:21;23.90;;;22.20;;
7985;SDS011;4038;42.612;23.066;2022-08-03T14:33:47;24.35;;;22.75;;
7985;SDS011;4038;42.612;23.066;2022-08-03T14:36:13;26.27;;;24.42;;
7985;SDS011;4038;42.612;23.066;2022-08-03T14:38:38;24.83;;;23.13;;
7985;SDS011;4038;42.612;23.066;2022-08-03T14:41:04;25.80;;;23.90;;
7985;SDS011;4038;42.612;23.066;2022-08-03T14:43:29;26.30;;;24.50;;
7985;SDS011;4038;42.612;23.066;2022-08-03T14:45:54;27.60;;;25.23;;
7985;SDS011;4038;42.612;23.066;2022-08-03T14:48:20;27.52;;;25.00;;
7985;SDS011;4038;42.612;23.066;2022-08-03T14:50:47;25.55;;;23.30;;
7985;SDS011;4038;42.612;23.066;2022-08-03T14:53:13;27.27;;;24.45;;
7985;SDS011;4038;42.612;23.066;2022-08-03T14:55:38;25.92;;;23.83;;
7985;SDS011;4038;42.612;23.066;2022-08-03T14:58:04;25.30;;;23.48;;
7985;SDS011;4038;42.612;23.066;2022-08-03T15:00:31;27.15;;;24.83;;
7985;SDS011;4038;42.612;23.066;2022-08-03T15:02:57;24.55;;;22.38;;
7985;SDS011;4038;42.612;23.066;2022-08-03T15:05:22;25.08;;;23.08;;
7985;SDS011;4038;42.612;23.066;2022-08-03T15:07:48;24.60;;;22.60;;
7985;SDS011;4038;42.612;23.066;2022-08-03T15:10:13;26.63;;;23.95;;
7985;SDS011;4038;42.612;23.066;2022-08-03T15:12:39;27.50;;;24.88;;
7985;SDS011;4038;42.612;23.066;2022-08-03T15:15:04;25.83;;;23.17;;
7985;SDS011;4038;42.612;23.066;2022-08-03T15:17:30;25.02;;;22.95;;
7985;SDS011;4038;42.612;23.066;2022-08-03T15:19:55;24.92;;;22.92;;
7985;SDS011;4038;42.612;23.066;2022-08-03T15:22:21;25.80;;;23.00;;
7985;SDS011;4038;42.612;23.066;2022-08-03T15:24:46;26.00;;;23.83;;